Time;durP1;ratioP1;P1;durP2;ratioP2;P2;SDS_P1;SDS_P2;PMS_P1;PMS_P2;Temp;Humidity;BMP_temperature;BMP_pressure;BME280_temperature;BME280_humidity;BME280_pressure;Samples;Min_cycle;Max_cycle;Signal;HPM_P1;HPM_P2
2022/08/18 00:01:14;;;;;;;;;14.60;12.80;;;;;31.82;32.24;98980.94;5112801;28;8855;-77
2022/08/18 00:03:46;;;;;;;;;16.20;16.20;;;;;31.77;32.65;98994.03;5115178;28;8871;-80
2022/08/18 00:06:27;;;;;;;;;14.40;13.60;;;;;31.73;32.59;98987.25;5110354;28;9585;-77
2022/08/18 00:08:58;;;;;;;;;16.00;16.00;;;;;31.76;32.19;98989.66;5105972;28;8917;-78
2022/08/18 00:11:30;;;;;;;;;15.20;14.20;;;;;31.75;32.59;98982.53;5092138;28;8856;-77
2022/08/18 00:14:13;;;;;;;;;18.40;16.60;;;;;31.71;32.42;98989.25;5074743;28;8856;-76
2022/08/18 00:16:53;;;;;;;;;20.50;20.50;;;;;31.68;32.74;98978.75;5091439;28;8963;-78
2022/08/18 00:19:23;;;;;;;;;18.50;18.50;;;;;31.59;33.11;98982.34;5073257;28;8873;-78
2022/08/18 00:22:15;;;;;;;;;18.80;15.00;;;;;31.59;33.34;98979.63;5090162;28;8942;-79
2022/08/18 00:24:46;;;;;;;;;14.40;14.40;;;;;31.54;33.06;98981.97;5107196;28;8940;-79
2022/08/18 00:27:20;;;;;;;;;15.20;15.00;;;;;31.58;33.04;98977.97;5074334;28;8911;-77
2022/08/18 00:29:53;;;;;;;;;16.80;15.00;;;;;31.57;33.00;98977.13;5089088;28;8858;-78
2022/08/18 00:32:26;;;;;;;;;15.00;15.00;;;;;31.65;32.94;98973.66;5074181;28;8965;-77
2022/08/18 00:34:56;;;;;;;;;18.20;17.20;;;;;31.54;33.17;98969.31;5088763;28;8838;-78
2022/08/18 00:37:24;;;;;;;;;15.00;14.40;;;;;31.54;33.46;98968.47;5072104;28;8914;-78
2022/08/18 00:39:54;;;;;;;;;16.40;16.20;;;;;31.47;33.06;98970.91;5047953;28;8938;-78
2022/08/18 00:42:27;;;;;;;;;11.80;11.20;;;;;31.53;33.34;98967.63;5027695;28;8874;-76
2022/08/18 00:45:01;;;;;;;;;16.25;15.50;;;;;31.51;33.39;98966.06;5035433;28;8872;-78
2022/08/18 00:47:32;;;;;;;;;16.20;16.00;;;;;31.51;33.50;98971.47;5048460;28;8911;-77
2022/08/18 00:50:23;;;;;;;;;17.80;17.80;;;;;31.48;32.88;98967.22;5039549;28;8875;-75
2022/08/18 00:52:57;;;;;;;;;18.80;17.00;;;;;31.45;33.06;98967.47;5068179;28;8844;-78
2022/08/18 00:55:28;;;;;;;;;14.40;13.80;;;;;31.43;33.20;98969.47;5068773;28;8941;-76
2022/08/18 00:58:11;;;;;;;;;15.60;15.60;;;;;31.36;33.22;98962.97;5037678;28;8990;-76
2022/08/18 01:00:41;;;;;;;;;18.25;18.00;;;;;31.32;33.47;98962.41;4998961;28;8992;-78
2022/08/18 01:03:16;;;;;;;;;15.40;13.80;;;;;31.37;33.58;98962.84;5031418;28;8873;-78
2022/08/18 01:05:58;;;;;;;;;18.60;14.80;;;;;31.42;33.15;98970.50;4983369;28;8980;-77
2022/08/18 01:08:28;;;;;;;;;15.60;14.80;;;;;31.36;33.52;98971.06;5049816;28;8881;-77
2022/08/18 01:11:00;;;;;;;;;18.40;18.40;;;;;31.40;33.80;98972.47;5047004;28;8850;-78
2022/08/18 01:13:32;;;;;;;;;17.80;17.60;;;;;31.36;33.74;98963.84;5053577;28;8922;-78
2022/08/18 01:21:49;;;;;;;;;15.00;15.00;;;;;31.33;33.36;98968.69;5088263;28;8866;-77
2022/08/18 01:21:51;;;;;;;;;17.40;16.80;;;;;31.19;33.75;98970.84;5089024;28;8856;-77
2022/08/18 01:25:58;;;;;;;;;17.60;15.80;;;;;31.23;33.48;98969.56;5091333;28;8894;-78
2022/08/18 01:27:17;;;;;;;;;15.60;15.60;;;;;31.11;33.49;98965.34;5096431;28;8855;-77
2022/08/18 01:29:47;;;;;;;;;17.40;17.40;;;;;31.12;34.05;98966.22;5090626;28;8844;-78
2022/08/18 01:32:19;;;;;;;;;15.00;15.00;;;;;31.18;33.61;98966.44;5090041;28;9541;-77
2022/08/18 01:34:49;;;;;;;;;16.60;15.60;;;;;31.24;33.61;98965.03;5055835;28;8880;-78
2022/08/18 01:37:21;;;;;;;;;18.80;16.40;;;;;31.23;33.56;98968.69;5088959;28;9710;-80
2022/08/18 01:39:52;;;;;;;;;18.60;18.60;;;;;31.20;34.09;98958.22;5088767;28;8862;-78
2022/08/18 01:42:44;;;;;;;;;16.00;16.00;;;;;31.23;33.85;98960.59;5089079;28;8855;-78
2022/08/18 01:45:15;;;;;;;;;16.60;16.00;;;;;31.11;34.27;98961.81;5089531;28;8851;-78
2022/08/18 01:47:44;;;;;;;;;18.40;17.20;;;;;31.03;33.92;98957.16;5088396;28;8970;-76
2022/08/18 01:50:17;;;;;;;;;21.40;19.00;;;;;31.06;33.72;98956.88;5089542;28;8887;-78
2022/08/18 01:52:46;;;;;;;;;15.00;15.00;;;;;31.11;34.17;98959.94;5088768;28;8863;-76
2022/08/18 01:55:16;;;;;;;;;15.80;15.80;;;;;30.85;34.23;98957.88;5089031;28;8835;-77
2022/08/18 01:57:46;;;;;;;;;17.00;17.00;;;;;30.65;34.53;98957.03;5088218;28;8864;-78
2022/08/18 02:00:17;;;;;;;;;17.60;17.60;;;;;30.64;34.62;98959.88;5089073;28;8866;-77
2022/08/18 02:02:46;;;;;;;;;17.40;17.40;;;;;30.81;34.36;98956.44;5088243;28;8874;-78
2022/08/18 02:05:36;;;;;;;;;18.80;17.60;;;;;30.76;34.97;98957.91;5089522;28;8839;-79
2022/08/18 02:08:06;;;;;;;;;17.80;17.80;;;;;30.84;34.52;98956.16;5065829;28;8824;-78
2022/08/18 02:10:36;;;;;;;;;18.60;17.60;;;;;30.85;35.14;98962.38;5066469;28;8840;-76
2022/08/18 02:13:05;;;;;;;;;19.00;17.20;;;;;30.90;34.45;98952.06;5065890;28;8998;-77
2022/08/18 02:15:35;;;;;;;;;18.40;17.20;;;;;30.97;34.96;98946.97;5049425;28;8876;-79
2022/08/18 02:18:03;;;;;;;;;13.20;12.20;;;;;30.96;34.49;98950.63;5049720;28;9637;-80
2022/08/18 02:20:32;;;;;;;;;19.40;18.40;;;;;30.96;34.69;98956.03;5065146;28;8860;-78
2022/08/18 02:23:02;;;;;;;;;17.20;16.40;;;;;30.90;35.11;98950.22;5066665;28;8948;-78
2022/08/18 02:25:30;;;;;;;;;20.60;19.40;;;;;30.90;35.12;98952.91;5046360;28;8869;-77
2022/08/18 02:28:00;;;;;;;;;19.40;19.00;;;;;30.94;34.51;98953.47;5023672;28;8846;-78
2022/08/18 02:30:28;;;;;;;;;17.40;17.40;;;;;30.86;35.17;98942.56;5057195;28;8862;-77
2022/08/18 02:32:58;;;;;;;;;21.60;18.80;;;;;30.82;34.62;98941.16;4997911;28;8905;-76
2022/08/18 02:35:26;;;;;;;;;18.60;17.40;;;;;30.94;34.63;98949.94;5029537;28;8892;-77
2022/08/18 02:37:55;;;;;;;;;19.80;18.60;;;;;30.94;34.82;98947.25;5044848;28;8845;-77
2022/08/18 02:40:23;;;;;;;;;16.40;15.80;;;;;30.96;34.75;98942.56;5045875;28;9580;-78
2022/08/18 02:42:53;;;;;;;;;18.00;14.60;;;;;30.93;34.58;98950.94;5046224;28;8882;-77
2022/08/18 02:45:23;;;;;;;;;20.80;19.40;;;;;30.93;34.65;98948.22;5029750;28;8951;-78
2022/08/18 02:47:53;;;;;;;;;21.00;20.60;;;;;30.94;34.83;98945.41;5034140;28;8850;-77
2022/08/18 02:50:22;;;;;;;;;17.60;17.60;;;;;30.92;34.87;98942.00;5013732;28;9826;-76
2022/08/18 02:52:51;;;;;;;;;19.75;19.75;;;;;30.94;35.04;98947.25;5037669;28;8936;-77
2022/08/18 02:55:21;;;;;;;;;22.20;21.40;;;;;30.93;34.84;98935.63;5067144;28;8870;-77
2022/08/18 02:57:49;;;;;;;;;22.60;20.20;;;;;30.82;34.76;98935.78;5119946;28;8868;-77
2022/08/18 03:00:19;;;;;;;;;18.80;18.80;;;;;30.81;34.88;98934.06;5053704;28;8836;-80
2022/08/18 03:02:53;;;;;;;;;21.20;19.40;;;;;30.80;35.42;98944.00;5089729;28;8836;-78
2022/08/18 03:05:21;;;;;;;;;17.20;17.20;;;;;30.85;34.74;98943.53;5090640;28;8932;-78
2022/08/18 03:07:50;;;;;;;;;21.50;20.50;;;;;30.84;34.95;98953.47;5088299;28;8867;-78
2022/08/18 03:10:19;;;;;;;;;21.60;19.40;;;;;30.87;34.85;98947.81;5070449;28;8856;-78
2022/08/18 03:13:01;;;;;;;;;15.80;15.80;;;;;30.67;35.14;98952.38;5087520;28;8877;-77
2022/08/18 03:15:30;;;;;;;;;20.20;18.60;;;;;30.44;36.10;98956.38;5088832;28;8863;-78
2022/08/18 03:18:00;;;;;;;;;25.50;23.00;;;;;30.02;36.64;98954.75;5088124;28;8855;-79
2022/08/18 03:20:29;;;;;;;;;22.50;21.25;;;;;29.88;36.90;98947.09;5089032;28;8880;-77
2022/08/18 03:22:59;;;;;;;;;20.50;20.50;;;;;29.92;37.18;98945.81;5090877;28;8859;-77
2022/08/18 03:25:43;;;;;;;;;32.00;30.50;;;;;30.09;36.92;98953.19;5089987;28;8847;-77
2022/08/18 03:28:12;;;;;;;;;26.00;25.75;;;;;30.02;36.41;98956.59;5087510;28;8891;-76
2022/08/18 03:30:42;;;;;;;;;21.50;20.25;;;;;29.99;36.68;98960.41;5073426;28;8859;-77
2022/08/18 03:33:11;;;;;;;;;19.50;19.50;;;;;30.10;36.75;98959.44;5090257;28;8868;-78
2022/08/18 03:35:40;;;;;;;;;18.00;18.00;;;;;30.02;36.54;98960.16;5070969;28;8866;-79
2022/08/18 03:38:10;;;;;;;;;17.00;16.75;;;;;30.04;36.73;98962.66;5088133;28;8852;-77
2022/08/18 03:40:38;;;;;;;;;14.50;13.75;;;;;30.21;36.29;98967.38;5088719;28;9574;-79
2022/08/18 03:43:07;;;;;;;;;20.75;19.75;;;;;30.17;36.41;98962.41;5103136;28;8894;-78
2022/08/18 03:45:55;;;;;;;;;22.75;21.50;;;;;30.31;35.94;98957.47;5072635;28;8855;-76
2022/08/18 03:48:25;;;;;;;;;18.00;18.00;;;;;30.47;35.92;98967.69;5093574;28;8860;-79
2022/08/18 03:50:54;;;;;;;;;17.00;17.00;;;;;30.49;35.58;98965.72;5090816;28;8860;-77
2022/08/18 03:53:23;;;;;;;;;19.75;18.75;;;;;30.47;35.82;98967.69;5023476;28;8836;-78
2022/08/18 03:55:51;;;;;;;;;41.00;35.00;;;;;30.63;35.31;98967.13;5091315;28;8867;-79
2022/08/18 03:58:20;;;;;;;;;18.50;18.50;;;;;30.43;35.76;98960.88;5056495;28;8978;-77
2022/08/18 04:00:48;;;;;;;;;21.75;21.50;;;;;30.65;35.54;98965.13;5090852;28;8840;-76
2022/08/18 04:03:17;;;;;;;;;20.25;19.25;;;;;30.65;35.17;98967.81;5073842;28;8899;-76
2022/08/18 04:05:47;;;;;;;;;19.00;19.00;;;;;30.69;35.41;98971.06;5090359;28;8857;-77
2022/08/18 04:08:16;;;;;;;;;22.25;20.50;;;;;30.66;35.08;98969.53;5072748;28;8863;-79
2022/08/18 04:10:45;;;;;;;;;19.25;19.00;;;;;30.90;34.84;98974.47;5091259;28;8864;-77
2022/08/18 04:13:14;;;;;;;;;17.75;17.25;;;;;30.88;34.89;98976.41;5091551;28;9006;-78
2022/08/18 04:15:42;;;;;;;;;18.00;18.00;;;;;30.85;34.87;98975.84;5125759;27;8884;-78
2022/08/18 04:18:11;;;;;;;;;23.75;23.75;;;;;31.01;34.78;98986.06;5092609;28;8873;-77
2022/08/18 04:20:40;;;;;;;;;20.25;20.25;;;;;31.21;34.23;98981.47;5098963;28;8848;-77
2022/08/18 04:23:28;;;;;;;;;18.75;18.25;;;;;31.34;34.53;98976.59;5096550;28;8950;-79
2022/08/18 04:26:10;;;;;;;;;35.75;31.25;;;;;31.42;34.20;98987.50;5111395;28;8855;-78
2022/08/18 04:28:46;;;;;;;;;61.67;50.33;;;;;31.59;34.46;98990.41;5113561;28;8863;-77
2022/08/18 04:31:17;;;;;;;;;22.75;22.00;;;;;31.67;34.03;99001.31;5104823;28;9338;-77
2022/08/18 04:33:45;;;;;;;;;21.00;18.50;;;;;31.77;33.74;98993.19;5074486;28;8864;-78
2022/08/18 04:36:16;;;;;;;;;42.75;36.75;;;;;31.88;33.75;99006.47;5093974;28;8986;-78
2022/08/18 04:38:49;;;;;;;;;23.50;23.25;;;;;31.90;33.79;98996.38;5092276;28;8966;-77
2022/08/18 04:41:18;;;;;;;;;25.75;25.00;;;;;31.85;33.92;99004.94;5073798;28;8847;-78
2022/08/18 04:43:51;;;;;;;;;23.00;22.50;;;;;31.72;34.09;99009.81;5092456;28;8859;-79
2022/08/18 04:46:21;;;;;;;;;23.25;23.25;;;;;31.80;34.10;99014.47;5092581;28;8866;-78
2022/08/18 04:48:57;;;;;;;;;24.25;23.75;;;;;31.61;34.41;99015.41;5090846;28;8969;-77
2022/08/18 04:51:29;;;;;;;;;27.75;24.00;;;;;31.82;33.84;99016.00;5088172;28;9106;-79
2022/08/18 04:54:18;;;;;;;;;24.75;22.75;;;;;32.08;34.15;99014.47;5057833;28;8868;-78
2022/08/18 04:56:47;;;;;;;;;23.75;22.25;;;;;32.23;34.02;99013.81;5086753;28;8940;-77
2022/08/18 04:59:15;;;;;;;;;28.25;25.75;;;;;32.36;34.01;99013.41;5089369;28;8998;-78
2022/08/18 05:01:46;;;;;;;;;22.50;22.50;;;;;32.49;33.77;99010.31;5091065;28;8855;-80
2022/08/18 05:04:17;;;;;;;;;22.25;22.25;;;;;32.63;33.50;99011.69;5057290;28;8836;-80
2022/08/18 05:06:46;;;;;;;;;30.25;29.00;;;;;32.58;33.04;99017.53;5073265;28;8924;-78
2022/08/18 05:09:15;;;;;;;;;37.25;33.00;;;;;32.55;33.09;99020.53;5091043;28;9621;-78
2022/08/18 05:11:52;;;;;;;;;34.75;32.25;;;;;32.28;33.17;99021.44;5090449;28;8989;-77
2022/08/18 05:14:21;;;;;;;;;37.75;34.75;;;;;32.09;33.77;99018.88;5091984;28;9717;-78
2022/08/18 05:16:50;;;;;;;;;27.25;25.75;;;;;32.15;33.37;99018.25;5070455;28;8858;-78
2022/08/18 05:19:21;;;;;;;;;24.25;24.25;;;;;31.96;33.84;99016.50;5073451;28;8854;-78
2022/08/18 05:21:54;;;;;;;;;24.00;22.75;;;;;32.18;33.43;99015.25;5068618;28;8878;-78
2022/08/18 05:24:29;;;;;;;;;29.25;29.00;;;;;32.08;33.60;99026.13;5052513;28;8911;-79
2022/08/18 05:27:07;;;;;;;;;22.00;22.00;;;;;32.38;32.86;99024.94;5068888;28;8881;-79
2022/08/18 05:29:36;;;;;;;;;27.50;25.75;;;;;32.50;32.35;99022.84;5048073;28;8956;-79
2022/08/18 05:32:14;;;;;;;;;24.75;23.25;;;;;32.80;32.24;99024.31;5001251;28;9056;-79
2022/08/18 05:35:05;;;;;;;;;20.25;18.00;;;;;32.55;32.31;99030.47;5053864;28;8851;-80
2022/08/18 05:37:42;;;;;;;;;26.00;25.75;;;;;32.69;32.01;99029.13;5067933;28;8852;-77
2022/08/18 05:40:14;;;;;;;;;24.50;23.25;;;;;32.90;31.70;99029.63;5067705;28;8860;-79
2022/08/18 05:42:44;;;;;;;;;25.75;25.25;;;;;32.93;31.84;99032.03;5065889;28;8879;-78
2022/08/18 05:45:17;;;;;;;;;26.50;26.50;;;;;32.95;31.90;99031.84;5067245;28;8867;-79
2022/08/18 05:47:46;;;;;;;;;24.00;23.50;;;;;32.66;32.00;99032.97;5067252;28;8856;-80
2022/08/18 05:50:18;;;;;;;;;26.25;25.75;;;;;32.65;31.88;99031.28;5018927;28;8848;-81
2022/08/18 05:52:54;;;;;;;;;19.75;19.75;;;;;33.02;31.28;99025.69;5067364;28;8970;-78
2022/08/18 05:58:22;;;;;;;;;21.25;21.25;;;;;33.22;30.52;99030.91;5067266;28;8895;-78
2022/08/18 06:01:04;;;;;;;;;21.00;20.00;;;;;33.55;29.96;99029.22;5058528;28;8854;-79
2022/08/18 06:03:37;;;;;;;;;21.75;21.25;;;;;33.85;29.59;99035.13;5069335;28;8862;-79
2022/08/18 06:06:19;;;;;;;;;20.50;18.50;;;;;34.13;29.35;99043.84;5050211;28;8993;-78
2022/08/18 06:09:10;;;;;;;;;17.75;17.75;;;;;33.46;29.60;99043.72;5041996;28;8851;-81
2022/08/18 06:11:39;;;;;;;;;27.50;23.75;;;;;33.32;29.90;99039.75;5067107;28;8868;-78
2022/08/18 06:14:09;;;;;;;;;24.50;23.00;;;;;33.29;29.99;99048.19;5050078;28;8860;-79
2022/08/18 06:16:49;;;;;;;;;22.50;22.50;;;;;33.83;29.72;99044.44;5066992;28;8868;-78
2022/08/18 06:19:37;;;;;;;;;16.00;16.00;;;;;34.12;29.04;99044.91;5066743;28;8852;-79
2022/08/18 06:22:18;;;;;;;;;21.50;21.50;;;;;33.88;29.26;99048.34;5032927;28;8868;-78
2022/08/18 06:24:56;;;;;;;;;19.00;18.75;;;;;34.07;29.42;99043.69;5033130;28;9585;-78
2022/08/18 06:27:39;;;;;;;;;21.00;19.75;;;;;34.35;28.78;99055.13;5016176;28;8859;-79
2022/08/18 06:30:16;;;;;;;;;22.25;20.50;;;;;34.36;29.19;99046.81;5065822;28;8854;-79
2022/08/18 06:33:14;;;;;;;;;22.00;21.00;;;;;35.14;29.06;99042.84;5068737;28;8984;-79
2022/08/18 06:35:49;;;;;;;;;25.00;23.50;;;;;35.15;28.56;99043.69;5036968;28;9039;-79
2022/08/18 06:38:40;;;;;;;;;19.25;19.25;;;;;35.28;28.11;99043.19;5052575;28;8846;-78
2022/08/18 06:44:19;;;;;;;;;25.00;23.00;;;;;34.36;29.22;99054.09;5088671;28;8859;-78
2022/08/18 06:46:56;;;;;;;;;17.50;17.50;;;;;34.26;29.20;99050.72;5089934;28;9021;-79
2022/08/18 06:49:37;;;;;;;;;21.50;21.25;;;;;34.12;29.76;99054.84;5090770;28;8970;-79
2022/08/18 06:52:25;;;;;;;;;19.25;18.25;;;;;34.18;30.10;99052.38;5090796;28;8928;-79
2022/08/18 06:54:55;;;;;;;;;21.75;20.50;;;;;33.99;30.33;99060.75;5092497;28;8872;-78
2022/08/18 06:57:28;;;;;;;;;20.50;19.75;;;;;33.77;30.91;99056.75;5072104;28;8840;-78
2022/08/18 07:00:00;;;;;;;;;21.25;21.00;;;;;33.41;31.92;99055.00;5089625;28;8878;-80
2022/08/18 07:02:47;;;;;;;;;21.50;21.00;;;;;33.62;31.53;99042.94;5089033;28;8836;-79
2022/08/18 07:05:19;;;;;;;;;20.00;19.25;;;;;34.24;30.86;99055.44;5090349;28;8832;-80
2022/08/18 07:08:09;;;;;;;;;26.25;24.75;;;;;34.10;30.63;99051.47;5088491;28;8863;-78
2022/08/18 07:10:41;;;;;;;;;23.25;23.00;;;;;33.77;30.94;99049.47;5087741;28;8843;-81
2022/08/18 07:13:25;;;;;;;;;19.50;19.50;;;;;33.76;30.69;99047.81;5087833;28;8859;-79
2022/08/18 07:15:55;;;;;;;;;12.50;12.00;;;;;33.93;29.77;99040.59;5093064;28;8928;-80
2022/08/18 07:18:28;;;;;;;;;19.50;19.50;;;;;34.62;28.88;99042.31;5065792;28;8844;-77
2022/08/18 07:20:59;;;;;;;;;14.75;13.75;;;;;34.09;29.45;99047.91;5068294;28;8856;-79
2022/08/18 07:23:33;;;;;;;;;16.75;16.75;;;;;33.71;30.12;99043.88;5035207;28;8852;-78
2022/08/18 07:26:08;;;;;;;;;21.75;20.75;;;;;33.89;29.97;99046.47;5035747;28;8868;-78
2022/08/18 07:28:40;;;;;;;;;19.00;18.75;;;;;33.60;30.29;99048.50;5069637;28;8851;-77
2022/08/18 07:31:15;;;;;;;;;15.50;15.50;;;;;33.81;29.93;99054.56;5061033;28;8884;-77
2022/08/18 07:33:55;;;;;;;;;20.25;19.50;;;;;34.54;28.95;99051.28;5032236;28;8869;-79
2022/08/18 07:36:28;;;;;;;;;15.00;13.50;;;;;35.02;27.97;99043.34;5041797;28;8843;-77
2022/08/18 07:39:03;;;;;;;;;16.00;16.00;;;;;35.47;27.61;99048.22;5066849;28;8855;-77
2022/08/18 07:41:36;;;;;;;;;16.75;16.75;;;;;35.75;27.21;99039.69;5092470;28;8856;-77
2022/08/18 07:44:17;;;;;;;;;24.25;23.25;;;;;35.20;27.69;99043.19;5091089;28;8840;-80
2022/08/18 07:46:55;;;;;;;;;21.00;21.00;;;;;35.36;27.39;99043.16;5092429;28;9609;-78
2022/08/18 07:49:29;;;;;;;;;17.75;17.75;;;;;35.71;27.40;99047.34;5090467;28;8832;-78
2022/08/18 07:52:04;;;;;;;;;22.25;19.50;;;;;35.87;27.23;99038.28;5090257;28;9017;-78
2022/08/18 07:54:54;;;;;;;;;18.25;18.25;;;;;35.63;26.74;99035.63;5089680;28;8886;-79
2022/08/18 07:57:34;;;;;;;;;23.75;22.75;;;;;35.85;27.10;99039.47;5091958;28;8886;-80
2022/08/18 08:00:18;;;;;;;;;16.25;15.50;;;;;36.37;26.56;99041.63;5089795;28;9020;-77
2022/08/18 08:03:22;;;;;;;;;17.25;16.00;;;;;36.84;25.99;99035.16;5090383;28;8851;-78
2022/08/18 08:06:04;;;;;;;;;16.75;16.00;;;;;37.17;25.78;99037.63;5092311;28;8843;-79
2022/08/18 08:08:40;;;;;;;;;23.00;22.00;;;;;37.06;25.60;99038.03;5073818;28;9019;-80
2022/08/18 08:11:20;;;;;;;;;18.50;18.50;;;;;37.07;25.61;99031.56;5090916;28;8986;-81
2022/08/18 08:14:11;;;;;;;;;17.75;17.75;;;;;37.51;25.49;99033.53;5091286;28;8917;-80
2022/08/18 08:16:46;;;;;;;;;16.75;16.75;;;;;37.54;25.01;99035.00;5073098;28;8848;-80
2022/08/18 08:19:38;;;;;;;;;23.00;23.00;;;;;37.07;25.91;99029.69;5038216;28;8844;-79
2022/08/18 08:22:37;;;;;;;;;19.50;18.50;;;;;36.30;26.71;99032.50;5051132;28;8856;-80
2022/08/18 08:25:14;;;;;;;;;22.25;21.50;;;;;35.82;27.55;99028.97;5067832;28;8948;-81
2022/08/18 08:28:17;;;;;;;;;23.75;21.25;;;;;36.70;26.75;99033.25;5050514;28;8852;-79
2022/08/18 08:30:54;;;;;;;;;19.75;19.25;;;;;36.81;26.22;99032.81;5007812;28;8888;-80
2022/08/18 08:33:28;;;;;;;;;17.75;17.75;;;;;36.17;26.96;99034.91;5010185;28;8863;-78
2022/08/18 08:36:04;;;;;;;;;20.75;19.50;;;;;35.62;27.61;99026.66;4994102;28;8870;-79
2022/08/18 08:38:44;;;;;;;;;24.00;22.25;;;;;36.01;27.51;99028.56;4979742;28;8855;-77
2022/08/18 08:41:24;;;;;;;;;19.75;18.75;;;;;36.11;27.10;99029.16;4996286;28;8886;-80
2022/08/18 08:44:00;;;;;;;;;22.75;21.00;;;;;35.71;27.97;99016.63;5009535;28;9089;-79
2022/08/18 08:46:34;;;;;;;;;26.75;25.00;;;;;36.44;26.94;99020.84;5011446;28;8874;-78
2022/08/18 08:49:09;;;;;;;;;18.75;18.50;;;;;36.94;26.38;99007.75;4978086;28;8878;-78
2022/08/18 08:51:43;;;;;;;;;24.00;24.00;;;;;37.24;25.87;99014.09;4977374;28;8866;-78
2022/08/18 08:54:20;;;;;;;;;19.75;19.75;;;;;36.75;26.21;99014.53;5010107;28;8862;-78
2022/08/18 08:56:52;;;;;;;;;19.00;18.25;;;;;36.38;26.56;99015.28;4994886;28;8867;-78
2022/08/18 08:59:23;;;;;;;;;22.25;21.75;;;;;36.20;26.68;99008.28;5029701;28;8959;-78
2022/08/18 09:02:03;;;;;;;;;18.50;17.25;;;;;36.67;25.28;99009.16;5066995;28;8864;-78
2022/08/18 09:04:46;;;;;;;;;17.25;17.25;;;;;36.98;25.33;99005.50;5111745;28;9058;-79
2022/08/18 09:07:54;;;;;;;;;26.25;26.00;;;;;37.26;24.80;99008.44;5108063;28;8878;-81
2022/08/18 09:10:53;;;;;;;;;21.00;18.50;;;;;37.75;24.74;99009.78;5094256;28;8866;-80
2022/08/18 09:13:50;;;;;;;;;15.50;15.50;;;;;38.03;23.61;99010.75;5099301;28;8894;-79
2022/08/18 09:16:34;;;;;;;;;20.50;20.50;;;;;38.14;23.75;99005.91;5041287;28;8835;-79
2022/08/18 09:19:21;;;;;;;;;17.50;17.50;;;;;38.22;23.57;99003.03;5089759;28;8851;-81
2022/08/18 09:22:00;;;;;;;;;20.00;20.00;;;;;38.49;23.71;99000.59;5089326;28;8828;-79
2022/08/18 09:24:31;;;;;;;;;17.75;17.75;;;;;38.19;23.69;98998.84;5087794;28;8882;-77
2022/08/18 09:27:25;;;;;;;;;19.00;19.00;;;;;38.65;23.72;98986.75;5089483;28;8839;-80
2022/08/18 09:29:57;;;;;;;;;21.00;21.00;;;;;38.41;23.38;98994.25;5089129;28;8889;-78
2022/08/18 09:32:51;;;;;;;;;21.00;20.00;;;;;38.70;22.95;98994.31;5089503;28;8828;-78
2022/08/18 09:35:40;;;;;;;;;20.25;20.25;;;;;38.22;23.03;98992.16;5088379;28;8827;-78
2022/08/18 09:44:13;;;;;;;;;22.50;21.25;;;;;38.28;22.35;98991.41;5068555;28;8874;-78
2022/08/18 09:47:01;;;;;;;;;18.00;17.00;;;;;38.59;22.38;98990.25;5076358;28;8868;-78
2022/08/18 09:49:40;;;;;;;;;20.25;19.75;;;;;38.83;22.17;98993.59;5089743;28;8848;-80
2022/08/18 09:52:54;;;;;;;;;22.00;20.75;;;;;39.11;21.38;98983.53;5089861;28;8860;-77
2022/08/18 09:55:54;;;;;;;;;24.25;24.25;;;;;39.04;22.22;98979.97;5053526;28;8852;-79
2022/08/18 09:58:54;;;;;;;;;23.25;21.50;;;;;39.33;21.30;98978.88;5089594;28;8871;-80
2022/08/18 10:01:42;;;;;;;;;21.25;21.25;;;;;39.67;21.07;98977.19;5089422;28;8882;-78
2022/08/18 10:04:32;;;;;;;;;21.25;20.25;;;;;39.72;21.00;98985.59;5088475;28;8863;-78
2022/08/18 10:07:16;;;;;;;;;18.00;18.00;;;;;39.38;20.86;98978.28;5087228;28;8858;-78
2022/08/18 10:10:04;;;;;;;;;24.25;24.25;;;;;39.64;21.20;98983.03;5085797;28;8820;-77
2022/08/18 10:13:07;;;;;;;;;19.00;19.00;;;;;39.75;20.17;98981.63;5087573;28;8858;-79
2022/08/18 10:15:52;;;;;;;;;19.25;19.00;;;;;39.94;19.90;98985.50;5070514;28;8868;-79
2022/08/18 10:18:59;;;;;;;;;20.00;20.00;;;;;40.00;20.10;98973.75;5087567;28;8871;-77
2022/08/18 10:21:53;;;;;;;;;20.75;20.75;;;;;40.15;19.98;98979.03;4989277;28;8901;-78
2022/08/18 10:24:23;;;;;;;;;19.00;19.00;;;;;40.02;19.90;98976.28;5005168;28;8963;-79
2022/08/18 10:27:11;;;;;;;;;21.50;21.50;;;;;40.09;19.88;98977.97;5007613;28;8908;-79
2022/08/18 10:29:48;;;;;;;;;26.50;25.25;;;;;40.21;20.04;98974.63;5008155;28;8872;-78
2022/08/18 10:32:42;;;;;;;;;24.25;24.25;;;;;40.16;19.42;98975.28;5025305;28;8873;-78
2022/08/18 10:35:58;;;;;;;;;23.75;23.75;;;;;40.46;19.87;98970.31;5008491;28;8847;-77
2022/08/18 10:38:52;;;;;;;;;22.50;22.25;;;;;40.53;19.31;98964.81;5008259;28;8984;-77
2022/08/18 10:41:27;;;;;;;;;24.75;24.25;;;;;40.39;19.54;98972.19;5007840;28;8866;-79
2022/08/18 10:44:00;;;;;;;;;23.50;22.00;;;;;40.09;19.17;98966.22;4989612;28;8916;-79
2022/08/18 10:46:52;;;;;;;;;33.00;31.00;;;;;40.46;19.56;98977.69;4966777;28;8850;-78
2022/08/18 10:49:26;;;;;;;;;22.75;22.75;;;;;40.67;19.74;98971.16;5006942;28;8877;-80
2022/08/18 10:52:30;;;;;;;;;25.50;25.00;;;;;40.94;18.70;98969.28;5002597;28;8850;-82
2022/08/18 10:55:35;;;;;;;;;21.00;20.75;;;;;41.00;17.65;98967.56;5029616;28;8971;-81
2022/08/18 10:58:47;;;;;;;;;21.00;20.50;;;;;41.15;17.99;98970.09;5068871;28;8852;-79
2022/08/18 11:01:27;;;;;;;;;24.25;24.00;;;;;41.13;19.05;98969.47;5085358;28;8879;-78
2022/08/18 11:04:28;;;;;;;;;26.00;26.00;;;;;41.27;18.66;98965.69;5086905;28;8843;-78
2022/08/18 11:07:07;;;;;;;;;23.75;23.25;;;;;41.31;18.48;98966.94;5088474;28;8856;-77
2022/08/18 11:09:37;;;;;;;;;27.25;26.75;;;;;41.17;18.86;98966.06;5087559;28;8908;-78
2022/08/18 11:12:13;;;;;;;;;26.00;25.00;;;;;40.88;18.64;98968.22;5089910;28;8855;-79
2022/08/18 11:15:07;;;;;;;;;20.75;20.75;;;;;40.53;18.97;98968.44;5088555;28;8855;-78
2022/08/18 11:18:02;;;;;;;;;24.25;24.25;;;;;39.90;19.58;98957.75;5085698;28;8914;-80
2022/08/18 11:20:33;;;;;;;;;24.75;23.75;;;;;40.29;19.83;98964.38;5088009;28;8934;-78
2022/08/18 11:23:04;;;;;;;;;24.25;24.25;;;;;39.60;19.54;98962.66;5086219;28;8871;-76
2022/08/18 11:25:35;;;;;;;;;22.75;22.25;;;;;40.24;20.13;98955.09;5087770;28;8952;-78
2022/08/18 11:28:15;;;;;;;;;24.50;24.50;;;;;40.86;18.66;98953.94;5070027;28;9006;-80
2022/08/18 11:31:04;;;;;;;;;22.25;22.25;;;;;41.00;18.68;98951.16;5087667;28;8844;-78
2022/08/18 11:33:34;;;;;;;;;22.00;22.00;;;;;41.23;18.26;98950.72;5088256;28;8970;-80
2022/08/18 11:36:05;;;;;;;;;25.75;25.25;;;;;41.53;18.55;98950.22;5067043;28;9687;-79
2022/08/18 11:38:38;;;;;;;;;25.50;24.25;;;;;41.74;18.18;98957.31;5067075;28;8858;-77
2022/08/18 11:41:17;;;;;;;;;19.50;19.50;;;;;42.01;17.77;98952.53;5086372;28;8998;-80
2022/08/18 11:43:47;;;;;;;;;24.25;24.25;;;;;42.29;17.39;98945.84;5086845;28;8832;-80
2022/08/18 11:46:26;;;;;;;;;24.00;24.00;;;;;42.51;16.89;98938.94;5088934;28;8855;-79
2022/08/18 11:49:00;;;;;;;;;25.00;24.00;;;;;42.62;17.00;98927.25;5121281;28;8880;-79
2022/08/18 11:51:34;;;;;;;;;22.00;22.00;;;;;42.68;16.87;98922.78;5086900;28;8848;-80
2022/08/18 11:54:21;;;;;;;;;20.50;19.25;;;;;43.14;16.94;98927.00;5088885;28;8848;-79
2022/08/18 11:57:43;;;;;;;;;22.75;22.00;;;;;43.38;16.73;98919.75;5108352;28;8903;-80
2022/08/18 12:00:52;;;;;;;;;21.25;21.25;;;;;43.63;16.26;98917.97;5107909;28;8896;-79
2022/08/18 12:03:28;;;;;;;;;24.50;24.50;;;;;43.67;16.08;98911.81;5107178;28;8904;-82
2022/08/18 12:06:00;;;;;;;;;23.75;22.25;;;;;43.94;15.48;98916.94;5093408;28;8859;-80
2022/08/18 12:08:36;;;;;;;;;22.75;22.75;;;;;44.15;15.46;98908.19;5088999;28;8960;-79
2022/08/18 12:11:28;;;;;;;;;24.00;22.75;;;;;44.44;15.13;98913.84;5090216;28;8867;-80
2022/08/18 12:14:05;;;;;;;;;20.50;20.25;;;;;44.78;15.18;98914.13;5091944;28;8883;-79
2022/08/18 12:16:55;;;;;;;;;20.25;19.75;;;;;44.83;14.38;98906.00;5095215;28;8868;-78
2022/08/18 12:19:29;;;;;;;;;19.00;17.75;;;;;43.86;14.58;98907.13;5095360;28;8878;-77
2022/08/18 12:22:00;;;;;;;;;14.75;13.50;;;;;42.62;15.10;98894.34;5095313;28;9632;-79
2022/08/18 12:24:39;;;;;;;;;13.25;13.25;;;;;43.48;14.21;98888.16;5094390;28;8887;-78
2022/08/18 12:27:08;;;;;;;;;14.00;14.00;;;;;42.51;14.67;98867.66;5092399;28;9126;-78